Alpena, Arkansas
Current Conditions -  °F | °C
As of 3:53 PM on Thursday 23 Oct 2014 (Local Time) from KHRO Reporting Station
Broken Clouds Broken Clouds  
Wind Chill: 17°   Ceiling: 11000
Heat Index: 17°   Visibility: 10mi
Dew Point: 12°   Wind: 5mph
Humidity: 70%   Direction: 140°SE
Pressure: 30.14"   Gusts: NA
Location:  36.29°N, 93.29°W
Report Text: KHRO 232053Z AUTO 14004KT 10SM FEW030 BKN110 17/12 A3014 RMK AO2 SLP202 60000 T01720117 56014
Loading
Personal Weather Stations






























Interactive Weather Map New forecast layout! Learn more

10-Day Weather Forecast

Advertisements
Track Severe Weather on mobile